Time;durP1;ratioP1;P1;durP2;ratioP2;P2;SDS_P1;SDS_P2;PMS_P1;PMS_P2;Temp;Humidity;BMP_temperature;BMP_pressure;BME280_temperature;BME280_humidity;BME280_pressure;Samples;Min_cycle;Max_cycle;Signal;HPM_P1;HPM_P2
2021/08/12 00:00:25;0.00;0.00;0.62;0.00;0.00;0.62;10.43;6.30;;;27.40;32.90;;;;;;2253269;61;20763;-52
2021/08/12 00:03:09;0.00;0.00;0.62;0.00;0.00;0.62;6.10;5.50;;;27.30;32.80;;;;;;2253704;61;20376;-51
2021/08/12 00:05:54;0.00;0.00;0.62;0.00;0.00;0.62;5.47;4.97;;;27.30;32.80;;;;;;2253186;61;20550;-53
2021/08/12 00:08:38;0.00;0.00;0.62;0.00;0.00;0.62;5.83;5.27;;;27.20;32.80;;;;;;2253515;61;20436;-50
2021/08/12 00:11:22;0.00;0.00;0.62;0.00;0.00;0.62;6.40;5.00;;;27.20;32.90;;;;;;2253822;61;20383;-52
2021/08/12 00:14:08;0.00;0.00;0.62;0.00;0.00;0.62;5.17;4.67;;;27.20;33.00;;;;;;2253296;61;20359;-53
2021/08/12 00:16:53;0.00;0.00;0.62;0.00;0.00;0.62;6.90;5.37;;;27.10;33.00;;;;;;2255976;61;20363;-52
2021/08/12 00:19:37;0.00;0.00;0.62;0.00;0.00;0.62;5.50;4.90;;;27.10;33.00;;;;;;2253863;61;20426;-51
2021/08/12 00:22:22;0.00;0.00;0.62;0.00;0.00;0.62;5.27;4.77;;;27.00;32.90;;;;;;2255437;61;20439;-51
2021/08/12 00:25:07;0.00;0.00;0.62;0.00;0.00;0.62;11.93;5.20;;;27.00;33.00;;;;;;2253454;61;20416;-51
2021/08/12 00:27:52;0.00;0.00;0.62;0.00;0.00;0.62;5.40;4.80;;;26.90;33.00;;;;;;2253508;61;20447;-53
2021/08/12 00:30:39;0.00;0.00;0.62;0.00;0.00;0.62;5.53;5.03;;;26.90;33.00;;;;;;2255710;61;20384;-50
2021/08/12 00:33:24;0.00;0.00;0.62;0.00;0.00;0.62;5.87;5.27;;;26.80;33.00;;;;;;2256230;61;20368;-51
2021/08/12 00:36:08;0.00;0.00;0.62;0.00;0.00;0.62;5.33;4.87;;;26.70;33.00;;;;;;2255534;61;20383;-53
2021/08/12 00:38:53;0.00;0.00;0.62;0.00;0.00;0.62;5.93;5.20;;;26.70;33.10;;;;;;2253404;61;20367;-52
2021/08/12 00:41:39;0.00;0.00;0.62;0.00;0.00;0.62;8.83;5.30;;;26.60;33.20;;;;;;2256180;61;20390;-49
2021/08/12 00:44:26;0.00;0.00;0.62;0.00;0.00;0.62;6.57;4.90;;;26.60;33.20;;;;;;2255392;61;20756;-53
2021/08/12 00:47:12;0.00;0.00;0.62;0.00;0.00;0.62;5.60;4.90;;;26.50;33.30;;;;;;2255801;61;20653;-55
2021/08/12 00:49:57;0.00;0.00;0.62;0.00;0.00;0.62;5.43;4.93;;;26.50;33.30;;;;;;2253763;61;20371;-54
2021/08/12 00:52:42;0.00;0.00;0.62;0.00;0.00;0.62;4.97;4.57;;;26.40;33.30;;;;;;2255754;61;20448;-53
2021/08/12 00:55:27;0.00;0.00;0.62;0.00;0.00;0.62;5.47;4.97;;;26.40;33.40;;;;;;2256275;61;20352;-55
2021/08/12 00:58:13;0.00;0.00;0.62;0.00;0.00;0.62;6.00;5.47;;;26.30;33.50;;;;;;2255512;61;20396;-54
2021/08/12 01:00:58;0.00;0.00;0.62;0.00;0.00;0.62;5.80;5.00;;;26.30;33.60;;;;;;2253443;61;20379;-53
2021/08/12 01:03:45;0.00;0.00;0.62;0.00;0.00;0.62;4.90;4.50;;;26.30;33.70;;;;;;2255958;61;20446;-56
2021/08/12 01:06:49;0.00;0.00;0.62;0.00;0.00;0.62;4.70;4.30;;;26.30;33.80;;;;;;2255234;61;20419;-52
2021/08/12 01:09:45;0.00;0.00;0.62;0.00;0.00;0.62;4.80;4.40;;;26.30;33.80;;;;;;2255798;61;20394;-54
2021/08/12 01:12:37;0.00;0.00;0.62;0.00;0.00;0.62;4.67;4.27;;;26.30;33.80;;;;;;2255323;61;20394;-53
2021/08/12 01:15:28;0.00;0.00;0.62;0.00;0.00;0.62;5.60;4.80;;;26.30;33.80;;;;;;2255788;61;20400;-52
2021/08/12 01:18:24;0.00;0.00;0.62;0.00;0.00;0.62;5.37;4.83;;;26.30;33.80;;;;;;2256042;61;20363;-53
2021/08/12 01:21:30;0.00;0.00;0.62;0.00;0.00;0.62;5.90;5.40;;;26.30;33.80;;;;;;2255321;61;20387;-55
2021/08/12 01:24:16;0.00;0.00;0.62;0.00;0.00;0.62;5.73;4.60;;;26.30;33.70;;;;;;2255677;61;20387;-51
2021/08/12 01:27:10;0.00;0.00;0.62;0.00;0.00;0.62;5.60;5.10;;;26.30;33.80;;;;;;2253110;61;20364;-54
2021/08/12 01:30:07;0.00;0.00;0.62;0.00;0.00;0.62;5.77;5.17;;;26.30;33.80;;;;;;2255771;61;20445;-52
2021/08/12 01:33:08;0.00;0.00;0.62;0.00;0.00;0.62;5.30;4.80;;;26.30;33.80;;;;;;2255990;61;20716;-52
2021/08/12 01:35:56;0.00;0.00;0.62;0.00;0.00;0.62;5.33;4.83;;;26.30;33.80;;;;;;2255392;61;20406;-52
2021/08/12 01:38:42;0.00;0.00;0.62;0.00;0.00;0.62;7.33;5.00;;;26.30;33.80;;;;;;2255663;61;20368;-54
2021/08/12 01:41:28;0.00;0.00;0.62;0.00;0.00;0.62;6.27;5.67;;;26.30;33.90;;;;;;2255921;61;20419;-53
2021/08/12 01:44:15;0.00;0.00;0.62;0.00;0.00;0.62;5.63;5.10;;;26.30;33.90;;;;;;2253289;61;20663;-51
2021/08/12 01:47:00;0.00;0.00;0.62;0.00;0.00;0.62;5.40;4.90;;;26.30;33.90;;;;;;2253540;61;20359;-51
2021/08/12 01:49:47;0.00;0.00;0.62;0.00;0.00;0.62;6.40;5.80;;;26.30;33.90;;;;;;2255234;61;20364;-54
2021/08/12 01:52:35;0.00;0.00;0.62;0.00;0.00;0.62;7.00;5.73;;;26.30;33.80;;;;;;2255696;61;20355;-53
2021/08/12 01:55:27;0.00;0.00;0.62;0.00;0.00;0.62;6.43;5.43;;;26.30;33.80;;;;;;2255999;61;20476;-50
2021/08/12 01:58:15;0.00;0.00;0.62;0.00;0.00;0.62;6.30;5.70;;;26.30;33.70;;;;;;2255408;61;20411;-52
2021/08/12 02:01:00;0.00;0.00;0.62;0.00;0.00;0.62;6.53;5.93;;;26.30;33.80;;;;;;2255695;61;20791;-51
2021/08/12 02:03:46;0.00;0.00;0.62;0.00;0.00;0.62;6.37;5.47;;;26.20;33.70;;;;;;2253070;61;20415;-51
2021/08/12 02:06:36;0.00;0.00;0.62;0.00;0.00;0.62;9.20;6.73;;;26.20;33.80;;;;;;2255564;61;20367;-52
2021/08/12 02:09:23;0.00;0.00;0.62;0.00;0.00;0.62;6.77;6.07;;;26.20;33.80;;;;;;2255809;61;20443;-52
2021/08/12 02:12:10;0.00;0.00;0.62;0.00;0.00;0.62;6.30;5.70;;;26.10;33.90;;;;;;2255325;61;20503;-49
2021/08/12 02:14:54;0.00;0.00;0.62;0.00;0.00;0.62;9.33;7.27;;;26.00;33.80;;;;;;2255649;61;20356;-49
2021/08/12 02:17:39;0.00;0.00;0.62;0.00;0.00;0.62;8.53;5.97;;;26.00;33.90;;;;;;2255886;61;20407;-50
2021/08/12 02:20:25;0.00;0.00;0.62;0.00;0.00;0.62;8.23;6.40;;;25.90;33.90;;;;;;2255718;61;20771;-54
2021/08/12 02:23:15;0.00;0.00;0.62;0.00;0.00;0.62;6.93;6.20;;;25.90;34.10;;;;;;2256003;61;20736;-53
2021/08/12 02:26:07;0.00;0.00;0.62;0.00;0.00;0.62;6.53;5.90;;;25.80;34.10;;;;;;2256500;61;20712;-52
2021/08/12 02:28:53;0.00;0.00;0.62;0.00;0.00;0.62;6.83;6.10;;;25.80;34.40;;;;;;2256232;61;20375;-52
2021/08/12 02:31:39;0.00;0.00;0.62;0.00;0.00;0.62;6.73;6.13;;;25.70;34.20;;;;;;2254124;61;20407;-56
2021/08/12 02:34:26;0.00;0.00;0.62;0.00;0.00;0.62;8.37;6.93;;;25.60;34.20;;;;;;2256067;61;20585;-53
2021/08/12 02:37:15;0.00;0.00;0.62;0.00;0.00;0.62;6.33;5.70;;;25.60;34.30;;;;;;2256097;61;20769;-51
2021/08/12 02:40:01;0.00;0.00;0.62;0.00;0.00;0.62;6.80;5.97;;;25.50;34.30;;;;;;2256557;61;20363;-52
2021/08/12 02:42:49;0.00;0.00;0.62;0.00;0.00;0.62;7.07;6.13;;;25.50;34.40;;;;;;2253585;61;20399;-49
2021/08/12 02:45:35;0.00;0.00;0.62;0.00;0.00;0.62;7.23;6.60;;;25.40;34.40;;;;;;2256079;61;20477;-51
2021/08/12 02:48:23;0.00;0.00;0.62;0.00;0.00;0.62;9.93;6.37;;;25.40;34.50;;;;;;2253852;61;20642;-53
2021/08/12 02:51:09;0.00;0.00;0.62;0.00;0.00;0.62;8.03;6.20;;;25.40;34.60;;;;;;2253696;61;20383;-51
2021/08/12 02:53:55;0.00;0.00;0.62;0.00;0.00;0.62;9.40;6.40;;;25.40;34.70;;;;;;2256522;61;20371;-52
2021/08/12 02:56:40;0.00;0.00;0.62;0.00;0.00;0.62;7.77;6.03;;;25.30;34.70;;;;;;2256001;61;20439;-55
2021/08/12 02:59:28;0.00;0.00;0.62;0.00;0.00;0.62;6.30;5.77;;;25.20;34.70;;;;;;2255932;61;20407;-52
2021/08/12 03:02:15;0.00;0.00;0.62;0.00;0.00;0.62;9.07;6.80;;;25.20;34.70;;;;;;2254035;61;20388;-49
2021/08/12 03:05:00;0.00;0.00;0.62;0.00;0.00;0.62;8.53;7.03;;;25.20;34.70;;;;;;2253376;61;20508;-53
2021/08/12 03:07:47;0.00;0.00;0.62;0.00;0.00;0.62;6.83;6.20;;;25.20;34.70;;;;;;2256107;61;20592;-51
2021/08/12 03:10:32;0.00;0.00;0.62;0.00;0.00;0.62;8.20;5.83;;;25.20;34.80;;;;;;2256399;61;20605;-51
2021/08/12 03:13:17;0.00;0.00;0.62;0.00;0.00;0.62;6.90;6.30;;;25.10;35.50;;;;;;2255979;61;20388;-50
2021/08/12 03:16:05;0.00;0.00;0.62;0.00;0.00;0.62;7.87;6.17;;;25.10;34.90;;;;;;2256535;61;20383;-55
2021/08/12 03:18:49;0.00;0.00;0.62;0.00;0.00;0.62;6.50;5.90;;;25.10;35.00;;;;;;2255755;61;20367;-55
2021/08/12 03:21:34;0.00;0.00;0.62;0.00;0.00;0.62;7.23;6.53;;;25.10;35.00;;;;;;2255915;61;20395;-50
2021/08/12 03:24:18;0.00;0.00;0.62;0.00;0.00;0.62;6.40;5.90;;;25.10;35.00;;;;;;2256525;61;20407;-51
2021/08/12 03:27:04;0.00;0.00;0.62;0.00;0.00;0.62;7.97;7.07;;;25.00;35.00;;;;;;2253425;61;20367;-52
2021/08/12 03:29:50;0.00;0.00;0.62;0.00;0.00;0.62;6.97;6.30;;;25.10;35.00;;;;;;2256045;61;20484;-50
2021/08/12 03:32:37;0.00;0.00;0.62;0.00;0.00;0.62;5.93;5.43;;;25.10;35.10;;;;;;2256435;61;20756;-51
2021/08/12 03:35:21;0.00;0.00;0.62;0.00;0.00;0.62;6.20;5.70;;;25.10;35.20;;;;;;2253552;61;20484;-52
2021/08/12 03:38:07;0.00;0.00;0.62;0.00;0.00;0.62;6.37;5.70;;;25.10;35.20;;;;;;2256449;61;20407;-53
2021/08/12 03:40:51;0.00;0.00;0.62;0.00;0.00;0.62;6.50;5.90;;;25.10;35.80;;;;;;2255730;61;20655;-51
2021/08/12 03:43:38;0.00;0.00;0.62;0.00;0.00;0.62;6.83;5.60;;;25.10;35.00;;;;;;2255873;61;20419;-53
2021/08/12 03:46:24;0.00;0.00;0.62;0.00;0.00;0.62;6.23;5.73;;;25.10;35.10;;;;;;2256296;61;20436;-55
2021/08/12 03:49:09;0.00;0.00;0.62;0.00;0.00;0.62;5.47;4.97;;;25.10;35.10;;;;;;2252773;61;20363;-51
2021/08/12 03:51:54;0.00;0.00;0.62;0.00;0.00;0.62;6.20;5.60;;;25.10;35.10;;;;;;2253290;61;20387;-56
2021/08/12 03:54:39;0.00;0.00;0.62;0.00;0.00;0.62;6.50;5.80;;;25.10;35.10;;;;;;2256290;61;20745;-54
2021/08/12 03:57:24;0.00;0.00;0.62;0.00;0.00;0.62;5.90;5.33;;;25.10;35.10;;;;;;2253578;61;20379;-53
2021/08/12 04:00:10;0.00;0.00;0.62;0.00;0.00;0.62;6.07;5.57;;;25.10;35.10;;;;;;2256325;61;20628;-52
2021/08/12 04:03:03;0.00;0.00;0.62;0.00;0.00;0.62;6.70;6.10;;;25.20;35.10;;;;;;2255451;61;20368;-51
2021/08/12 04:05:50;0.00;0.00;0.62;0.00;0.00;0.62;6.53;5.93;;;25.20;35.20;;;;;;2255942;61;20359;-52
2021/08/12 04:08:35;0.00;0.00;0.62;0.00;0.00;0.62;7.67;6.80;;;25.20;35.10;;;;;;2255948;61;20370;-55
2021/08/12 04:11:20;0.00;0.00;0.62;0.00;0.00;0.62;7.37;6.70;;;25.20;35.10;;;;;;2255620;61;20392;-56
2021/08/12 04:14:05;0.00;0.00;0.62;0.00;0.00;0.62;7.53;6.83;;;25.20;35.10;;;;;;2253704;61;20359;-53
2021/08/12 04:16:52;0.00;0.00;0.62;0.00;0.00;0.62;10.53;6.03;;;25.20;35.10;;;;;;2253402;61;20367;-53
2021/08/12 04:19:37;0.00;0.00;0.62;0.00;0.00;0.62;7.60;7.00;;;25.20;35.00;;;;;;2255824;61;20376;-52
2021/08/12 04:22:23;0.00;0.00;0.62;0.00;0.00;0.62;7.50;6.80;;;25.10;35.00;;;;;;2256079;61;20396;-52
2021/08/12 04:25:09;0.00;0.00;0.62;0.00;0.00;0.62;9.20;7.00;;;25.10;35.00;;;;;;2255428;61;20487;-53
2021/08/12 04:27:53;0.00;0.00;0.62;0.00;0.00;0.62;6.97;6.37;;;25.10;35.00;;;;;;2253529;61;20396;-54
2021/08/12 04:30:38;0.00;0.00;0.62;0.00;0.00;0.62;7.07;6.37;;;25.00;35.00;;;;;;2255963;61;20419;-54
2021/08/12 04:33:22;0.00;0.00;0.62;0.00;0.00;0.62;7.93;7.17;;;25.10;35.00;;;;;;2253282;61;20380;-49
2021/08/12 04:36:07;0.00;0.00;0.62;0.00;0.00;0.62;7.80;6.97;;;25.00;35.10;;;;;;2255938;61;20368;-53
2021/08/12 04:38:53;0.00;0.00;0.62;0.00;0.00;0.62;8.90;7.30;;;25.00;35.20;;;;;;2253757;61;20367;-52
2021/08/12 04:41:38;0.00;0.00;0.62;0.00;0.00;0.62;8.73;7.43;;;24.90;35.20;;;;;;2255694;61;20856;-53
2021/08/12 04:44:23;0.00;0.00;0.62;0.00;0.00;0.62;8.00;7.13;;;24.90;35.20;;;;;;2253582;61;20396;-52
2021/08/12 04:47:08;0.00;0.00;0.62;0.00;0.00;0.62;8.23;7.10;;;24.90;35.20;;;;;;2255504;61;20407;-53
2021/08/12 04:49:53;0.00;0.00;0.62;0.00;0.00;0.62;7.43;6.83;;;24.80;35.20;;;;;;2255754;61;20399;-51
2021/08/12 04:52:41;0.00;0.00;0.62;0.00;0.00;0.62;6.97;6.27;;;24.80;35.30;;;;;;2253683;61;20372;-54
2021/08/12 04:55:27;0.00;0.00;0.62;0.00;0.00;0.62;7.17;6.57;;;24.70;35.20;;;;;;2255613;61;20359;-55
2021/08/12 04:58:12;0.00;0.00;0.62;0.00;0.00;0.62;7.03;6.33;;;24.70;35.30;;;;;;2255732;61;20373;-55
2021/08/12 05:00:57;0.00;0.00;0.62;0.00;0.00;0.62;7.47;6.70;;;24.70;35.40;;;;;;2256088;61;20455;-55
2021/08/12 05:03:42;0.00;0.00;0.62;0.00;0.00;0.62;7.23;6.50;;;24.70;35.40;;;;;;2255411;61;20383;-54
2021/08/12 05:06:26;0.00;0.00;0.62;0.00;0.00;0.62;7.13;6.37;;;24.60;35.40;;;;;;2253261;61;20384;-52
2021/08/12 05:09:11;0.00;0.00;0.62;0.00;0.00;0.62;7.60;6.90;;;24.60;35.60;;;;;;2255577;61;20456;-53
2021/08/12 05:11:58;0.00;0.00;0.62;0.00;0.00;0.62;6.67;6.10;;;24.60;35.60;;;;;;2255745;61;20388;-56
2021/08/12 05:14:43;0.00;0.00;0.62;0.00;0.00;0.62;6.83;6.00;;;24.60;35.60;;;;;;2255991;61;20364;-52
2021/08/12 05:17:27;0.00;0.00;0.62;0.00;0.00;0.62;10.00;6.70;;;24.60;35.60;;;;;;2255553;61;20578;-55
2021/08/12 05:20:13;0.00;0.00;0.62;0.00;0.00;0.62;7.87;7.17;;;24.60;35.60;;;;;;2255433;61;20368;-50
2021/08/12 05:22:58;0.00;0.00;0.62;0.00;0.00;0.62;7.40;6.67;;;24.60;35.60;;;;;;2255921;61;20368;-51
2021/08/12 05:25:44;0.00;0.00;0.62;0.00;0.00;0.62;7.77;7.00;;;24.60;35.60;;;;;;2255442;61;20383;-53
2021/08/12 05:28:30;0.00;0.00;0.62;0.00;0.00;0.62;7.90;7.10;;;24.60;35.70;;;;;;2255210;61;20356;-51
2021/08/12 05:31:15;0.00;0.00;0.62;0.00;0.00;0.62;7.80;7.10;;;24.60;35.70;;;;;;2255527;61;20774;-52
2021/08/12 05:34:00;0.00;0.00;0.62;0.00;0.00;0.62;7.70;6.93;;;24.60;35.80;;;;;;2255319;61;20399;-52
2021/08/12 05:36:45;0.00;0.00;0.62;0.00;0.00;0.62;7.30;6.60;;;24.60;35.90;;;;;;2255649;61;20391;-53
2021/08/12 05:39:29;0.00;0.00;0.62;0.00;0.00;0.62;10.13;7.97;;;24.60;35.90;;;;;;2252821;61;20610;-51
2021/08/12 05:42:14;0.00;0.00;0.62;0.00;0.00;0.62;7.17;6.47;;;24.50;35.80;;;;;;2255182;61;20660;-55
2021/08/12 05:45:00;0.00;0.00;0.62;0.00;0.00;0.62;7.50;6.40;;;24.50;35.90;;;;;;2253453;61;20414;-51
2021/08/12 05:47:45;0.00;0.00;0.62;0.00;0.00;0.62;7.17;6.47;;;24.50;36.00;;;;;;2254935;61;20372;-53
2021/08/12 05:50:30;0.00;0.00;0.62;0.00;0.00;0.62;7.13;6.43;;;24.50;36.00;;;;;;2252858;61;20387;-54
2021/08/12 05:53:16;0.00;0.00;0.62;0.00;0.00;0.62;6.90;5.97;;;24.50;36.00;;;;;;2255659;61;20367;-53
2021/08/12 05:56:02;0.00;0.00;0.62;0.00;0.00;0.62;7.80;5.70;;;24.50;36.00;;;;;;2255972;61;20768;-52
2021/08/12 05:58:46;0.00;0.00;0.62;0.00;0.00;0.62;6.63;5.97;;;24.50;36.00;;;;;;2256304;61;20367;-50
2021/08/12 06:01:32;0.00;0.00;0.62;0.00;0.00;0.62;6.00;5.40;;;24.60;36.00;;;;;;2255641;61;20387;-54
2021/08/12 06:04:18;0.00;0.00;0.62;0.00;0.00;0.62;6.50;5.60;;;24.60;36.00;;;;;;2255781;61;20395;-56
2021/08/12 06:07:03;0.00;0.00;0.62;0.00;0.00;0.62;8.10;6.03;;;24.60;36.00;;;;;;2256187;61;20359;-53
2021/08/12 06:09:50;0.00;0.00;0.62;0.00;0.00;0.62;6.57;5.87;;;24.60;36.00;;;;;;2255567;61;20472;-53
2021/08/12 06:12:35;0.00;0.00;0.62;0.00;0.00;0.62;6.13;5.13;;;24.70;36.20;;;;;;2255922;61;20395;-56
2021/08/12 06:15:21;0.00;0.00;0.62;0.00;0.00;0.62;8.33;5.40;;;24.70;36.20;;;;;;2256239;61;20375;-53
2021/08/12 06:18:11;0.00;0.00;0.62;0.00;0.00;0.62;6.07;5.53;;;24.80;36.20;;;;;;2253098;61;20410;-57
2021/08/12 06:20:57;0.00;0.00;0.62;0.00;0.00;0.62;6.80;5.57;;;24.80;36.20;;;;;;2255224;61;20512;-58
2021/08/12 06:23:42;0.00;0.00;0.62;0.00;0.00;0.62;6.03;5.30;;;24.80;36.10;;;;;;2255315;61;20407;-55
2021/08/12 06:26:27;0.00;0.00;0.62;0.00;0.00;0.62;5.70;5.20;;;24.90;36.20;;;;;;2255651;61;20700;-55
2021/08/12 06:29:12;0.00;0.00;0.62;0.00;0.00;0.62;5.70;5.20;;;24.90;36.80;;;;;;2256044;61;20387;-58
2021/08/12 06:31:57;0.00;0.00;0.62;0.00;0.00;0.62;5.90;5.40;;;25.00;36.20;;;;;;2253250;61;20376;-54
2021/08/12 06:34:42;0.00;0.00;0.62;0.00;0.00;0.62;5.50;5.00;;;25.00;36.20;;;;;;2255922;61;20359;-58
2021/08/12 06:37:30;0.00;0.00;0.62;0.00;0.00;0.62;6.10;5.60;;;25.10;36.20;;;;;;2256514;61;20487;-56
2021/08/12 06:40:16;0.00;0.00;0.62;0.00;0.00;0.62;8.80;5.83;;;25.10;36.20;;;;;;2256012;61;20364;-58
2021/08/12 06:43:01;0.00;0.00;0.62;0.00;0.00;0.62;7.10;5.10;;;25.10;36.90;;;;;;2256213;61;20360;-54
2021/08/12 06:45:49;0.00;0.00;0.62;0.00;0.00;0.62;5.37;4.87;;;25.20;36.20;;;;;;2255802;61;20431;-53
2021/08/12 06:48:33;0.00;0.00;0.62;0.00;0.00;0.62;6.53;5.80;;;25.20;36.10;;;;;;2256013;61;20440;-53
2021/08/12 06:51:19;0.00;0.00;0.62;0.00;0.00;0.62;6.07;5.57;;;25.30;36.20;;;;;;2256408;61;20426;-49
2021/08/12 06:54:03;0.00;0.00;0.62;0.00;0.00;0.62;7.50;5.30;;;25.30;36.20;;;;;;2255908;61;20817;-52
2021/08/12 06:56:48;0.00;0.00;0.62;0.00;0.00;0.62;6.30;5.70;;;25.40;36.10;;;;;;2256029;61;20724;-53
2021/08/12 06:59:33;0.00;0.00;0.62;0.00;0.00;0.62;6.53;5.10;;;25.40;36.10;;;;;;2256332;61;20360;-54
2021/08/12 07:02:17;0.00;0.00;0.62;0.00;0.00;0.62;5.83;5.23;;;25.40;36.10;;;;;;2253525;61;20403;-53
2021/08/12 07:05:03;0.00;0.00;0.62;0.00;0.00;0.62;5.53;4.80;;;25.50;36.20;;;;;;2256041;61;20466;-54
2021/08/12 07:07:49;0.00;0.00;0.62;0.00;0.00;0.62;5.03;4.60;;;25.50;36.10;;;;;;2255854;61;20441;-52
2021/08/12 07:10:35;0.00;0.00;0.62;0.00;0.00;0.62;5.30;4.80;;;25.50;36.00;;;;;;2255857;61;20396;-53
2021/08/12 07:13:20;0.00;0.00;0.62;0.00;0.00;0.62;5.47;4.60;;;25.60;36.00;;;;;;2254006;61;20352;-53
2021/08/12 07:16:06;0.00;0.00;0.62;0.00;0.00;0.62;5.40;4.90;;;25.60;36.00;;;;;;2255879;61;20352;-53
2021/08/12 07:18:50;0.00;0.00;0.62;0.00;0.00;0.62;5.17;4.67;;;25.70;36.00;;;;;;2253558;61;20711;-55
2021/08/12 07:21:35;0.00;0.00;0.62;0.00;0.00;0.62;5.17;4.70;;;25.70;36.00;;;;;;2256271;61;20431;-53
2021/08/12 07:24:25;0.00;0.00;0.62;0.00;0.00;0.62;5.50;4.90;;;25.70;35.90;;;;;;2255766;61;20763;-57
2021/08/12 07:27:10;0.00;0.00;0.62;0.00;0.00;0.62;4.30;3.97;;;25.80;36.00;;;;;;2256173;61;20427;-52
2021/08/12 07:29:54;0.00;0.00;0.62;0.00;0.00;0.62;5.00;4.50;;;25.80;35.90;;;;;;2253325;61;20621;-54
2021/08/12 07:32:40;0.00;0.00;0.62;0.00;0.00;0.62;5.97;5.47;;;25.80;35.90;;;;;;2255873;61;20356;-54
2021/08/12 07:35:25;0.00;0.00;0.62;0.00;0.00;0.62;4.93;4.13;;;25.90;35.90;;;;;;2256324;61;20363;-56
2021/08/12 07:38:09;0.00;0.00;0.62;0.00;0.00;0.62;4.63;4.23;;;25.90;35.80;;;;;;2255664;61;20356;-54
2021/08/12 07:40:56;0.00;0.00;0.62;0.00;0.00;0.62;5.53;5.03;;;26.00;35.90;;;;;;2255970;61;20387;-55
2021/08/12 07:43:41;0.00;0.00;0.62;0.00;0.00;0.62;6.03;5.03;;;26.00;35.80;;;;;;2256136;61;20586;-52
2021/08/12 07:46:26;0.00;0.00;0.62;0.00;0.00;0.62;4.80;4.30;;;26.00;35.80;;;;;;2253299;61;20617;-56
2021/08/12 07:49:10;0.00;0.00;0.62;0.00;0.00;0.62;5.83;5.27;;;26.10;35.80;;;;;;2255954;61;20363;-51
2021/08/12 07:51:56;0.00;0.00;0.62;0.00;0.00;0.62;6.20;4.93;;;26.10;35.70;;;;;;2253339;61;20384;-54
2021/08/12 07:54:45;0.00;0.00;0.62;0.00;0.00;0.62;5.20;4.70;;;26.10;35.70;;;;;;2253590;61;20371;-51
2021/08/12 07:57:31;0.00;0.00;0.62;0.00;0.00;0.62;5.83;5.20;;;26.20;35.80;;;;;;2253913;61;20391;-52
2021/08/12 08:00:16;0.00;0.00;0.62;0.00;0.00;0.62;4.90;4.40;;;26.20;35.80;;;;;;2253146;61;20363;-56
2021/08/12 08:03:02;0.00;0.00;0.62;0.00;0.00;0.62;5.50;5.00;;;26.20;35.80;;;;;;2253396;61;20500;-56
2021/08/12 08:05:46;0.00;0.00;0.62;0.00;0.00;0.62;5.20;4.10;;;26.30;35.80;;;;;;2253811;61;20603;-52
2021/08/12 08:08:31;0.00;0.00;0.62;0.00;0.00;0.62;4.70;4.20;;;26.30;35.70;;;;;;2253122;61;20441;-56
2021/08/12 08:11:17;0.00;0.00;0.62;0.00;0.00;0.62;4.73;4.23;;;26.40;35.80;;;;;;2253566;61;20379;-52
2021/08/12 08:14:03;0.00;0.00;0.62;0.00;0.00;0.62;5.03;3.83;;;26.40;35.70;;;;;;2253635;61;20364;-55
2021/08/12 08:16:47;0.00;0.00;0.62;0.00;0.00;0.62;6.07;4.63;;;26.50;35.70;;;;;;2253308;61;20359;-56
2021/08/12 08:19:32;0.00;0.00;0.62;0.00;0.00;0.62;5.30;4.80;;;26.50;35.60;;;;;;2253708;61;20724;-54
2021/08/12 08:22:16;0.00;0.00;0.62;0.00;0.00;0.62;5.20;4.70;;;26.50;35.60;;;;;;2253138;61;20387;-55
2021/08/12 08:25:01;0.00;0.00;0.62;0.00;0.00;0.62;4.93;4.47;;;26.60;35.70;;;;;;2253343;61;20371;-53
2021/08/12 08:27:45;0.00;0.00;0.62;0.00;0.00;0.62;5.53;5.03;;;26.60;35.60;;;;;;2253719;61;20732;-53
2021/08/12 08:30:33;0.00;0.00;0.62;0.00;0.00;0.62;4.73;4.33;;;26.60;35.50;;;;;;2253202;61;20779;-54
2021/08/12 08:33:18;0.00;0.00;0.62;0.00;0.00;0.62;6.13;4.40;;;26.70;35.60;;;;;;2253381;61;20515;-56
2021/08/12 08:36:03;0.00;0.00;0.62;0.00;0.00;0.62;5.00;4.50;;;26.70;35.50;;;;;;2253758;61;20420;-56
2021/08/12 08:38:48;0.00;0.00;0.62;0.00;0.00;0.62;4.77;3.80;;;26.70;35.50;;;;;;2253283;61;20383;-58
2021/08/12 08:41:33;0.00;0.00;0.62;0.00;0.00;0.62;5.90;4.60;;;26.80;35.50;;;;;;2253704;61;20387;-54
2021/08/12 08:44:21;0.00;0.00;0.62;0.00;0.00;0.62;5.37;4.87;;;26.80;35.50;;;;;;2253066;61;20384;-55
2021/08/12 08:47:09;0.00;0.00;0.62;0.00;0.00;0.62;3.80;3.50;;;26.80;35.40;;;;;;2253173;61;20407;-56
2021/08/12 08:49:56;0.00;0.00;0.62;0.00;0.00;0.62;4.40;3.97;;;26.90;35.50;;;;;;2253684;61;20357;-56
2021/08/12 08:52:41;0.00;0.00;0.62;0.00;0.00;0.62;4.63;3.60;;;26.90;35.40;;;;;;2253278;61;20403;-58
2021/08/12 08:55:26;0.00;0.00;0.62;0.00;0.00;0.62;4.93;4.50;;;26.90;35.40;;;;;;2253330;61;20744;-54
2021/08/12 08:58:12;0.00;0.00;0.62;0.00;0.00;0.62;5.83;4.90;;;27.00;35.50;;;;;;2253757;61;20403;-54
2021/08/12 09:00:57;0.00;0.00;0.62;0.00;0.00;0.62;4.90;4.40;;;27.00;35.40;;;;;;2253291;61;20379;-53
2021/08/12 09:03:45;0.00;0.00;0.62;0.00;0.00;0.62;6.70;4.53;;;27.00;35.40;;;;;;2253551;61;20410;-53
2021/08/12 09:06:30;0.00;0.00;0.62;0.00;0.00;0.62;5.33;3.67;;;27.00;35.40;;;;;;2253127;61;20367;-56
2021/08/12 09:09:15;0.00;0.00;0.62;0.00;0.00;0.62;4.43;4.03;;;27.10;35.40;;;;;;2253109;61;20352;-51
2021/08/12 09:12:00;0.00;0.00;0.62;0.00;0.00;0.62;4.53;4.13;;;27.10;35.40;;;;;;2253726;61;20418;-51
2021/08/12 09:14:45;0.00;0.00;0.62;0.00;0.00;0.62;6.27;4.47;;;27.20;35.40;;;;;;2253150;61;20410;-56
2021/08/12 09:17:30;0.00;0.00;0.62;0.00;0.00;0.62;3.87;3.57;;;27.20;35.40;;;;;;2253259;61;20407;-53
2021/08/12 09:20:19;0.00;0.00;0.62;0.00;0.00;0.62;4.83;4.43;;;27.20;35.40;;;;;;2253555;61;20727;-54
2021/08/12 09:23:09;0.00;0.00;0.62;0.00;0.00;0.62;5.03;4.00;;;27.20;35.40;;;;;;2253134;61;20368;-55
2021/08/12 09:25:56;0.00;0.00;0.62;0.00;0.00;0.62;4.37;3.97;;;27.20;35.30;;;;;;2253214;61;20424;-53
2021/08/12 09:28:40;0.00;0.00;0.62;0.00;0.00;0.62;4.30;3.90;;;27.30;35.40;;;;;;2253275;61;20407;-51
2021/08/12 09:31:25;0.00;0.00;0.62;0.00;0.00;0.62;6.40;4.40;;;27.30;35.40;;;;;;2253975;61;20402;-56
2021/08/12 09:34:12;0.00;0.00;0.62;0.00;0.00;0.62;4.60;4.20;;;27.40;35.40;;;;;;2256715;61;20583;-59
2021/08/12 09:37:06;0.00;0.00;0.62;0.00;0.00;0.62;4.20;3.87;;;27.40;35.40;;;;;;2253776;61;20471;-56
2021/08/12 09:40:03;0.00;0.00;0.62;0.00;0.00;0.62;4.40;4.00;;;27.40;35.40;;;;;;2254031;61;20592;-57
2021/08/12 09:42:55;0.00;0.00;0.62;0.00;0.00;0.62;5.10;4.37;;;27.50;35.40;;;;;;2254278;61;20719;-54
2021/08/12 09:45:41;0.00;0.00;0.62;0.00;0.00;0.62;4.20;3.50;;;27.40;35.30;;;;;;2253883;61;20674;-56
2021/08/12 09:48:27;0.00;0.00;0.62;0.00;0.00;0.62;4.10;3.70;;;27.50;35.30;;;;;;2254309;61;20399;-57
2021/08/12 09:51:11;0.00;0.00;0.62;0.00;0.00;0.62;5.47;4.90;;;27.50;35.30;;;;;;2253632;61;20391;-57
2021/08/12 09:54:03;0.00;0.00;0.62;0.00;0.00;0.62;4.50;3.97;;;27.60;36.00;;;;;;2254049;61;20759;-58
2021/08/12 09:56:47;0.00;0.00;0.62;0.00;0.00;0.62;4.20;3.80;;;27.60;35.20;;;;;;2254502;61;20364;-54
2021/08/12 09:59:45;0.00;0.00;0.62;0.00;0.00;0.62;4.53;4.13;;;27.70;35.30;;;;;;2253714;61;20371;-55
2021/08/12 10:02:31;0.00;0.00;0.62;0.00;0.00;0.62;4.20;3.57;;;27.70;35.30;;;;;;2253942;61;20733;-58
2021/08/12 10:05:15;0.00;0.00;0.62;0.00;0.00;0.62;4.60;3.70;;;27.70;35.30;;;;;;2253494;61;20648;-55
2021/08/12 10:08:03;0.00;0.00;0.62;0.00;0.00;0.62;4.60;3.93;;;27.70;35.20;;;;;;2256307;61;20436;-56
2021/08/12 10:10:49;0.00;0.00;0.62;0.00;0.00;0.62;4.50;4.10;;;27.80;35.20;;;;;;2254094;61;20476;-54
2021/08/12 10:13:33;0.00;0.00;0.62;0.00;0.00;0.62;4.63;4.23;;;27.80;35.20;;;;;;2253712;61;20707;-54
2021/08/12 10:16:18;0.00;0.00;0.62;0.00;0.00;0.62;4.07;3.77;;;27.80;35.20;;;;;;2253930;61;20411;-57
2021/08/12 10:19:06;0.00;0.00;0.62;0.00;0.00;0.62;5.50;4.03;;;27.90;35.20;;;;;;2254079;61;20423;-55
2021/08/12 10:21:51;0.00;0.00;0.62;0.00;0.00;0.62;4.63;4.13;;;27.90;35.20;;;;;;2253640;61;20388;-55
2021/08/12 10:24:36;0.00;0.00;0.62;0.00;0.00;0.62;4.37;3.97;;;28.00;35.30;;;;;;2253705;61;20386;-60
2021/08/12 10:27:22;0.00;0.00;0.62;0.00;0.00;0.62;4.20;3.63;;;28.00;35.20;;;;;;2253727;61;20368;-54
2021/08/12 10:30:10;0.00;0.00;0.62;0.00;0.00;0.62;4.43;4.00;;;28.00;35.20;;;;;;2253754;61;20368;-57
2021/08/12 10:32:57;0.00;0.00;0.62;0.00;0.00;0.62;4.40;4.00;;;28.10;35.30;;;;;;2254100;61;20367;-57
2021/08/12 10:35:42;0.00;0.00;0.62;0.00;0.00;0.62;5.00;3.80;;;28.10;35.30;;;;;;2253686;61;20476;-55
2021/08/12 10:38:27;0.00;0.00;0.62;0.00;0.00;0.62;4.67;4.13;;;28.10;35.30;;;;;;2253714;61;20575;-55
2021/08/12 10:41:15;0.00;0.00;0.62;0.00;0.00;0.62;4.57;4.10;;;28.20;35.30;;;;;;2253737;61;20779;-57
2021/08/12 10:44:01;0.00;0.00;0.62;0.00;0.00;0.62;4.40;4.00;;;28.20;35.20;;;;;;2253597;61;20538;-53
2021/08/12 10:46:46;0.00;0.00;0.62;0.00;0.00;0.62;4.77;4.27;;;28.30;35.30;;;;;;2253614;61;20384;-52
2021/08/12 10:49:32;0.00;0.00;0.62;0.00;0.00;0.62;5.00;3.97;;;28.30;35.30;;;;;;2253764;61;20355;-54
2021/08/12 10:52:17;0.00;0.00;0.62;0.00;0.00;0.62;4.77;4.37;;;28.40;35.40;;;;;;2253794;61;20412;-53
2021/08/12 10:55:18;0.00;0.00;0.62;0.00;0.00;0.62;4.90;4.40;;;28.40;35.90;;;;;;2254124;61;20403;-53